Latest Weather Observations for Scotts Peak

IDT60801

Issued at 6:01 pm EST Thursday 9 April 2020 (issued every 10 minutes, with the page automatically refreshed every 10 minutes)

About weather observations | Map of weather stations | Latest weather observations for TAS | Other Formats
Station Details ID: 097083 Name: SCOTTS PEAK DAM Lat: -43.04 Lon: 146.27 Height: 408.0 m
Data from the previous 72 hours. | See also: Recent months at Scotts Peak
Date/Time
EST
Temp
°C
App
Temp
°C
Dew
Point
°C
Rel
Hum
%
Delta-T
°C
Wind Press
QNH
hPa
Press
MSL
hPa
Rain since
9am
mm
Dir  Spd
km/h
Gust
km/h
Spd
kts
Gust
kts
09/06:00pm 11.6 7.6 6.7 72 2.4 NW 17 20 9 11 - - 0.2
09/05:30pm 13.9 9.3 6.7 62 3.6 NNW 20 24 11 13 - - 0.2
09/05:00pm 15.2 9.7 7.5 60 3.9 NNW 26 30 14 16 - - 0.2
09/04:30pm 16.5 11.5 8.0 57 4.4 NNW 24 30 13 16 - - 0.2
09/04:00pm 17.7 13.6 8.8 56 4.7 NNW 20 24 11 13 - - 0.2
09/03:30pm 18.3 14.0 9.4 56 4.8 NNW 22 28 12 15 - - 0.2
09/03:00pm 18.6 14.4 9.7 56 4.8 NNW 22 28 12 15 - - 0.2
09/02:30pm 18.7 14.5 9.8 56 4.8 NNW 22 24 12 13 - - 0.2
09/02:00pm 18.4 14.2 9.7 57 4.7 NNW 22 28 12 15 - - 0.2
09/01:30pm 18.1 13.5 9.5 57 4.6 NNW 24 28 13 15 - - 0.2
09/01:00pm 17.5 11.9 10.1 62 4.0 NNW 30 35 16 19 - - 0.2
09/12:30pm 16.6 10.4 9.3 62 3.9 NNW 32 39 17 21 - - 0.2
09/12:00pm 16.0 9.2 9.4 65 3.5 NNW 35 41 19 22 - - 0.2
09/11:30am 15.4 9.0 9.5 68 3.1 N 33 39 18 21 - - 0.2
09/11:00am 14.5 9.2 9.7 73 2.5 N 28 37 15 20 - - 0.0
09/10:30am 13.6 9.5 10.0 79 1.9 N 22 30 12 16 - - 0.0
09/10:00am 12.1 10.3 12.1 100 0.0 NNW 13 24 7 13 - - 0.0
09/09:30am 9.8 7.7 9.8 100 0.0 NW 11 13 6 7 - - 0.0
09/09:00am 9.8 8.1 9.8 100 0.0 NNW 9 11 5 6 - - 0.2
09/08:30am 8.4 6.3 8.4 100 0.0 WNW 9 11 5 6 - - 0.2
09/08:00am 8.7 5.9 8.7 100 0.0 NW 13 17 7 9 - - 0.2
09/07:30am 7.8 5.2 7.8 100 0.0 NW 11 13 6 7 - - 0.2
09/07:00am 7.3 4.6 7.3 100 0.0 NW 11 15 6 8 - - 0.2
09/06:30am 7.2 4.5 7.2 100 0.0 NNW 11 15 6 8 - - 0.2
09/06:00am 7.1 4.3 7.1 100 0.0 NNW 11 17 6 9 - - 0.2
09/05:30am 6.8 4.4 6.8 100 0.0 NNW 9 13 5 7 - - 0.2
09/05:00am 6.4 4.2 6.4 100 0.0 WNW 7 11 4 6 - - 0.2
09/04:30am 6.1 3.9 6.1 100 0.0 WNW 7 9 4 5 - - 0.2
09/04:00am 5.5 2.8 5.5 100 0.0 NW 9 11 5 6 - - 0.2
09/03:30am 5.4 3.0 5.4 100 0.0 NW 7 9 4 5 - - 0.2
09/03:00am 5.3 3.1 5.3 100 0.0 NNW 6 7 3 4 - - 0.2
09/02:30am 5.2 2.8 5.2 100 0.0 NNW 7 9 4 5 - - 0.2
09/02:00am 4.8 1.9 4.8 100 0.0 NNW 9 11 5 6 - - 0.2
09/01:30am 4.7 1.8 4.7 100 0.0 NNW 9 11 5 6 - - 0.2
09/01:00am 5.2 2.4 5.2 100 0.0 SE 9 9 5 5 - - 0.2
09/12:30am 5.2 2.0 5.2 100 0.0 SE 11 13 6 7 - - 0.2
09/12:00am 5.4 2.3 5.4 100 0.0 SE 11 13 6 7 - - 0.2
 
Date/Time
EST
Temp
°C
App
Temp
°C
Dew
Point
°C
Rel
Hum
%
Delta-T
°C
Wind Press
QNH
hPa
Press
MSL
hPa
Rain since
9am
mm
Dir  Spd
km/h
Gust
km/h
Spd
kts
Gust
kts
08/11:30pm 5.5 2.4 5.5 100 0.0 SE 11 15 6 8 - - 0.2
08/11:00pm 5.9 2.9 5.9 100 0.0 SE 11 13 6 7 - - 0.2
08/10:30pm 6.0 2.6 6.0 100 0.0 SE 13 15 7 8 - - 0.2
08/10:00pm 6.4 2.7 6.3 99 0.0 SE 15 17 8 9 - - 0.2
08/09:30pm 6.7 3.0 6.3 97 0.2 SE 15 19 8 10 - - 0.2
08/09:00pm 6.9 3.2 6.3 96 0.3 SSE 15 19 8 10 - - 0.2
08/08:30pm 7.3 4.7 6.1 92 0.6 ESE 9 11 5 6 - - 0.2
08/08:00pm 7.7 5.6 6.0 89 0.8 S 6 7 3 4 - - 0.2
08/07:30pm 8.6 6.3 5.7 82 1.3 SSW 7 15 4 8 - - 0.2
08/07:00pm 8.0 4.1 5.5 84 1.1 SW 15 20 8 11 - - 0.2
08/06:30pm 8.3 4.1 5.8 84 1.2 WSW 17 20 9 11 - - 0.2
08/06:00pm 9.0 4.5 5.9 81 1.5 WSW 19 24 10 13 - - 0.2
08/05:30pm 10.8 6.7 6.2 73 2.2 WSW 17 20 9 11 - - 0.2
08/05:00pm 13.5 10.8 5.7 59 3.8 NW 9 13 5 7 - - 0.2
08/04:30pm 14.3 11.7 5.9 57 4.1 NW 9 11 5 6 - - 0.2
08/04:00pm 15.0 12.0 6.0 55 4.4 NW 11 15 6 8 - - 0.2
08/03:30pm 15.8 12.8 6.0 52 4.8 NNW 11 15 6 8 - - 0.2
08/03:00pm 15.9 13.1 6.9 55 4.5 NNW 11 15 6 8 - - 0.2
08/02:30pm 15.3 12.5 7.1 58 4.1 NW 11 15 6 8 - - 0.2
08/02:00pm 14.4 11.7 7.2 62 3.6 NW 11 13 6 7 - - 0.2
08/01:30pm 15.0 11.7 8.0 63 3.6 NW 15 19 8 10 - - 0.2
08/01:00pm 14.9 11.2 7.9 63 3.6 NNW 17 20 9 11 - - 0.2
08/12:30pm 13.8 10.8 7.6 66 3.1 NNW 13 20 7 11 - - 0.0
08/12:00pm 10.8 8.6 5.1 68 2.7 SE 6 11 3 6 - - 0.0
08/11:30am 11.2 10.3 7.9 80 1.6 ENE 2 9 1 5 - - 0.0
08/11:00am 9.7 7.1 6.1 78 1.7 SE 9 15 5 8 - - 0.0
08/10:30am 9.3 7.0 5.7 78 1.7 SE 7 11 4 6 - - 0.0
08/10:00am 8.9 5.3 6.7 86 1.0 ESE 15 20 8 11 - - 0.0
08/09:30am 8.7 6.2 8.3 97 0.2 SE 11 17 6 9 - - 0.0
08/09:00am 8.4 8.0 8.4 100 0.0 CALM 0 6 0 3 - - 1.8
08/08:30am 7.8 6.5 7.8 100 0.0 SE 4 9 2 5 - - 1.8
08/08:00am 7.6 5.7 7.6 100 0.0 SE 7 9 4 5 - - 1.8
08/07:30am 7.1 5.3 7.1 100 0.0 SSW 6 9 3 5 - - 1.8
08/07:00am 6.7 5.2 6.7 100 0.0 SSW 4 7 2 4 - - 1.8
08/06:30am 6.3 4.3 6.3 100 0.0 SSE 6 7 3 4 - - 1.8
08/06:00am 6.2 3.2 6.2 100 0.0 SW 11 15 6 8 - - 1.8
08/05:30am 6.3 3.7 6.3 100 0.0 SW 9 15 5 8 - - 1.8
08/05:00am 6.6 4.1 6.6 100 0.0 SSW 9 15 5 8 - - 1.8
08/04:30am 6.5 3.2 6.5 100 0.0 SW 13 17 7 9 - - 1.8
08/04:00am 6.6 3.3 6.6 100 0.0 WSW 13 17 7 9 - - 1.8
08/03:30am 6.7 3.8 6.7 100 0.0 SW 11 15 6 8 - - 1.8
08/03:00am 7.2 2.9 7.2 100 0.0 SW 19 24 10 13 - - 1.8
08/02:30am 6.9 3.7 6.9 100 0.0 WSW 13 17 7 9 - - 1.8
08/02:00am 7.2 3.3 7.2 100 0.0 SW 17 22 9 12 - - 1.8
08/01:30am 6.7 3.5 6.7 100 0.0 SW 13 17 7 9 - - 1.8
08/01:00am 6.8 3.2 6.8 100 0.0 SW 15 19 8 10 - - 1.6
08/12:30am 7.0 4.6 7.0 100 0.0 SSW 9 13 5 7 - - 1.6
08/12:00am 7.3 5.3 7.3 100 0.0 SSW 7 15 4 8 - - 1.6
 
Date/Time
EST
Temp
°C
App
Temp
°C
Dew
Point
°C
Rel
Hum
%
Delta-T
°C
Wind Press
QNH
hPa
Press
MSL
hPa
Rain since
9am
mm
Dir  Spd
km/h
Gust
km/h
Spd
kts
Gust
kts
07/11:30pm 7.4 3.9 7.4 100 0.0 SW 15 20 8 11 - - 1.6
07/11:00pm 7.4 4.7 7.4 100 0.0 SW 11 17 6 9 - - 1.6
07/10:30pm 7.7 4.7 7.7 100 0.0 SW 13 17 7 9 - - 1.6
07/10:00pm 7.8 4.4 7.8 100 0.0 WSW 15 19 8 10 - - 1.6
07/09:30pm 8.1 5.2 8.1 100 0.0 SW 13 17 7 9 - - 1.6
07/09:00pm 8.3 4.3 8.3 100 0.0 WSW 19 28 10 15 - - 1.6
07/08:30pm 8.3 4.7 8.3 100 0.0 WSW 17 24 9 13 - - 1.6
07/08:00pm 8.4 4.4 8.4 100 0.0 WSW 19 28 10 15 - - 1.2
07/07:30pm 8.4 4.2 8.4 100 0.0 W 20 30 11 16 - - 1.0
07/07:00pm 8.6 5.8 8.6 100 0.0 W 13 20 7 11 - - 0.4
07/06:30pm 8.8 4.7 8.8 100 0.0 NW 20 24 11 13 - - 0.4
07/06:00pm 9.3 5.5 9.2 99 0.1 NW 19 24 10 13 - - 0.4
07/05:30pm 9.5 5.4 8.7 95 0.4 WNW 20 26 11 14 - - 0.4
07/05:00pm 9.6 5.2 8.8 95 0.4 WNW 22 30 12 16 - - 0.4
07/04:30pm 10.1 5.4 7.9 86 1.1 WNW 22 28 12 15 - - 0.4
07/04:00pm 9.9 7.0 9.6 98 0.2 WSW 15 20 8 11 - - 0.0
07/03:30pm 10.1 5.3 9.0 93 0.6 WSW 24 37 13 20 - - 0.0
07/03:00pm 11.2 6.3 8.6 84 1.3 WNW 24 35 13 19 - - 0.0
07/02:30pm 12.0 6.4 8.8 81 1.6 WNW 28 37 15 20 - - 0.0
07/02:00pm 11.0 6.0 9.6 91 0.7 NW 26 33 14 18 - - 0.0
07/01:30pm 11.6 7.2 10.3 92 0.7 NNW 24 32 13 17 - - 0.0
07/01:00pm 10.6 5.8 8.9 89 0.9 WNW 24 30 13 16 - - 0.0
07/12:30pm 10.7 4.7 8.8 88 1.0 NW 30 35 16 19 - - 0.0
07/12:00pm 11.0 5.9 9.1 88 1.0 NW 26 33 14 18 - - 0.0
07/11:30am 11.2 6.1 9.3 88 1.0 NW 26 33 14 18 - - 0.0
07/11:00am 10.2 4.6 8.8 91 0.7 NW 28 33 15 18 - - 0.0
07/10:30am 11.0 6.0 9.6 91 0.7 NW 26 33 14 18 - - 0.0
07/10:00am 10.1 5.1 9.5 96 0.3 NW 26 32 14 17 - - 0.0
07/09:30am 9.7 5.1 9.6 99 0.1 NW 24 32 13 17 - - 0.0
07/09:00am 8.8 4.0 8.8 100 0.0 NNW 24 28 13 15 - - 0.6
07/08:30am 8.2 3.2 8.2 100 0.0 NNW 24 28 13 15 - - 0.6
07/08:00am 7.8 2.7 7.8 100 0.0 NNW 24 28 13 15 - - 0.6
07/07:30am 7.5 2.0 7.5 100 0.0 NW 26 32 14 17 - - 0.6
07/07:00am 7.3 2.1 7.3 100 0.0 NNW 24 28 13 15 - - 0.6
07/06:30am 7.0 2.5 7.0 100 0.0 NNW 20 26 11 14 - - 0.6
07/06:00am 7.0 2.5 7.0 100 0.0 NW 20 24 11 13 - - 0.6
07/05:30am 7.0 2.5 7.0 100 0.0 NW 20 26 11 14 - - 0.6
07/05:00am 7.0 2.5 7.0 100 0.0 NW 20 22 11 12 - - 0.6
07/04:30am 6.9 2.4 6.9 100 0.0 NW 20 26 11 14 - - 0.6
07/04:00am 6.8 1.9 6.8 100 0.0 NNW 22 28 12 15 - - 0.6
07/03:30am 6.7 3.1 6.7 100 0.0 NW 15 20 8 11 - - 0.6
07/03:00am 6.7 3.8 6.7 100 0.0 WNW 11 15 6 8 - - 0.6
07/02:30am 6.7 2.7 6.7 100 0.0 NW 17 20 9 11 - - 0.6
07/02:00am 6.7 2.1 6.7 100 0.0 NNW 20 26 11 14 - - 0.6
07/01:30am 6.7 2.1 6.7 100 0.0 NW 20 24 11 13 - - 0.6
07/01:00am 6.7 2.3 6.7 100 0.0 NW 19 24 10 13 - - 0.6
07/12:30am 6.7 2.7 6.7 100 0.0 NW 17 22 9 12 - - 0.6
07/12:00am 6.5 2.5 6.5 100 0.0 NW 17 20 9 11 - - 0.6
 
Date/Time
EST
Temp
°C
App
Temp
°C
Dew
Point
°C
Rel
Hum
%
Delta-T
°C
Wind Press
QNH
hPa
Press
MSL
hPa
Rain since
9am
mm
Dir  Spd
km/h
Gust
km/h
Spd
kts
Gust
kts
06/11:30pm 6.5 3.2 6.5 100 0.0 NW 13 26 7 14 - - 0.6
06/11:00pm 6.6 3.7 6.6 100 0.0 NW 11 19 6 10 - - 0.4
06/10:30pm 6.6 3.0 6.6 100 0.0 NW 15 19 8 10 - - 0.4
06/10:00pm 6.6 3.0 6.6 100 0.0 NW 15 20 8 11 - - 0.4
06/09:30pm 6.6 4.1 6.6 100 0.0 W 9 13 5 7 - - 0.0
06/09:00pm 6.8 4.0 6.8 100 0.0 WNW 11 20 6 11 - - 0.0
06/08:30pm 6.8 2.5 6.8 100 0.0 NW 19 24 10 13 - - 0.0
06/08:00pm 6.8 2.7 6.1 95 0.3 WNW 17 24 9 13 - - 0.0
06/07:30pm 7.2 2.0 5.5 89 0.8 WNW 22 28 12 15 - - 0.0
06/07:00pm 7.3 1.7 5.4 88 0.9 WNW 24 32 13 17 - - 0.0
06/06:30pm 7.5 1.6 5.6 88 0.9 NW 26 33 14 18 - - 0.0

Other formats

Comma delimited format used in spreadsheet applications
http://www.bom.gov.au/fwo/IDT60801/IDT60801.95958.axf

JavaScript Object Notation format (JSON) in row-major order
http://www.bom.gov.au/fwo/IDT60801/IDT60801.95958.json

Data quality

Most of these data are generated automatically and are frequently updated. Quality checks on data are not normally performed. It is possible for incorrect values to appear. Refer to information at About Latest Weather Observations and please check the disclaimer before using these data.